createdAt,value
2017-08-15T00:01:21.623Z,20.40
2017-08-15T00:03:49.339Z,20.40
2017-08-15T00:06:17.062Z,20.30
2017-08-15T00:08:44.782Z,20.30
2017-08-15T00:11:12.504Z,20.20
2017-08-15T00:13:40.982Z,20.10
2017-08-15T00:16:09.471Z,20.10
2017-08-15T00:18:37.198Z,20.00
2017-08-15T00:21:04.911Z,20.00
2017-08-15T00:23:32.841Z,20.00
2017-08-15T00:26:00.594Z,20.00
2017-08-15T00:28:28.302Z,20.00
2017-08-15T00:30:56.795Z,19.90
2017-08-15T00:33:24.525Z,19.80
2017-08-15T00:35:52.254Z,19.80
2017-08-15T00:38:19.965Z,19.80
2017-08-15T00:40:48.507Z,19.70
2017-08-15T00:43:16.218Z,19.70
2017-08-15T00:45:44.716Z,19.60
2017-08-15T00:48:12.450Z,19.60
2017-08-15T00:50:40.219Z,19.50
2017-08-15T00:53:08.705Z,19.40
2017-08-15T00:55:37.203Z,19.40
2017-08-15T00:58:04.938Z,19.40
2017-08-15T01:00:33.501Z,19.40
2017-08-15T01:03:01.267Z,19.40
2017-08-15T01:05:29.016Z,19.40
2017-08-15T01:07:56.746Z,19.30
2017-08-15T01:10:24.462Z,19.30
2017-08-15T01:12:52.193Z,19.30
2017-08-15T01:15:19.910Z,19.30
2017-08-15T01:17:47.622Z,19.30
2017-08-15T01:20:15.634Z,19.20
2017-08-15T01:22:43.354Z,19.20
2017-08-15T01:25:11.066Z,19.20
2017-08-15T01:27:38.769Z,19.10
2017-08-15T01:30:06.482Z,19.10
2017-08-15T01:32:34.202Z,19.10
2017-08-15T01:35:01.918Z,19.10
2017-08-15T01:37:29.695Z,19.10
2017-08-15T01:39:57.402Z,19.10
2017-08-15T01:42:25.121Z,19.00
2017-08-15T01:44:52.831Z,19.00
2017-08-15T01:47:20.540Z,19.00
2017-08-15T01:49:48.246Z,19.00
2017-08-15T01:52:15.953Z,18.90
2017-08-15T01:54:43.674Z,18.90
2017-08-15T01:57:11.403Z,18.90
2017-08-15T01:59:39.114Z,18.80
2017-08-15T02:02:06.821Z,18.80
2017-08-15T02:04:34.535Z,18.70
2017-08-15T02:07:02.246Z,18.60
2017-08-15T02:12:04.749Z,18.40
2017-08-15T02:14:32.469Z,18.30
2017-08-15T02:17:00.178Z,18.30
2017-08-15T02:19:28.658Z,18.40
2017-08-15T02:21:56.362Z,18.30
2017-08-15T02:24:24.082Z,18.30
2017-08-15T02:26:52.576Z,18.30
2017-08-15T02:29:21.075Z,18.30
2017-08-15T02:31:48.810Z,18.30
2017-08-15T02:34:16.525Z,18.30
2017-08-15T02:36:44.233Z,18.30
2017-08-15T02:39:11.934Z,18.20
2017-08-15T02:41:39.670Z,18.20
2017-08-15T02:44:08.157Z,18.20
2017-08-15T02:46:36.635Z,18.20
2017-08-15T02:49:05.133Z,18.20
2017-08-15T02:51:32.846Z,18.20
2017-08-15T02:54:00.550Z,18.20
2017-08-15T02:56:29.054Z,18.30
2017-08-15T02:58:56.749Z,18.20
2017-08-15T03:01:24.458Z,18.30
2017-08-15T03:03:52.176Z,18.30
2017-08-15T03:06:19.883Z,18.30
2017-08-15T03:08:48.358Z,18.20
2017-08-15T03:11:16.081Z,18.20
2017-08-15T03:13:43.793Z,18.20
2017-08-15T03:16:11.505Z,18.20
2017-08-15T03:18:39.206Z,18.20
2017-08-15T03:21:06.966Z,18.20
2017-08-15T03:23:34.670Z,18.20
2017-08-15T03:26:02.382Z,18.10
2017-08-15T03:28:30.086Z,18.10
2017-08-15T03:30:58.582Z,18.10
2017-08-15T03:33:26.286Z,18.00
2017-08-15T03:35:54.111Z,18.10
2017-08-15T03:38:21.818Z,18.00
2017-08-15T03:40:49.528Z,18.00
2017-08-15T03:43:17.233Z,18.00
2017-08-15T03:45:44.950Z,18.00
2017-08-15T03:48:13.417Z,17.90
2017-08-15T03:50:41.127Z,17.90
2017-08-15T03:53:08.829Z,17.90
2017-08-15T03:55:36.524Z,17.90
2017-08-15T03:58:04.989Z,17.80
2017-08-15T04:00:33.457Z,17.80
2017-08-15T04:03:01.162Z,17.80
2017-08-15T04:05:28.868Z,17.80
2017-08-15T04:07:56.568Z,17.70
2017-08-15T04:10:25.056Z,17.60
2017-08-15T04:12:53.533Z,17.60
2017-08-15T04:15:21.999Z,17.50
2017-08-15T04:17:49.705Z,17.50
2017-08-15T04:20:17.414Z,17.50
2017-08-15T04:22:45.121Z,17.50
2017-08-15T04:25:12.823Z,17.50
2017-08-15T04:27:40.617Z,17.50
2017-08-15T04:30:08.326Z,17.50
2017-08-15T04:32:36.028Z,17.50
2017-08-15T04:35:03.734Z,17.50
2017-08-15T04:37:32.197Z,17.50
2017-08-15T04:39:59.909Z,17.50
2017-08-15T04:42:27.670Z,17.40
2017-08-15T04:44:55.375Z,17.40
2017-08-15T04:47:23.095Z,17.50
2017-08-15T04:49:50.798Z,17.50
2017-08-15T04:52:18.506Z,17.50
2017-08-15T04:54:46.205Z,17.50
2017-08-15T04:57:13.918Z,17.50
2017-08-15T04:59:42.391Z,17.60
2017-08-15T05:02:10.858Z,17.60
2017-08-15T05:04:38.570Z,17.60
2017-08-15T05:07:06.284Z,17.70
2017-08-15T05:09:33.994Z,17.70
2017-08-15T05:12:01.724Z,17.70
2017-08-15T05:14:30.200Z,17.80
2017-08-15T05:16:57.916Z,17.80
2017-08-15T05:19:25.626Z,17.90
2017-08-15T05:21:53.333Z,17.90
2017-08-15T05:24:21.049Z,18.00
2017-08-15T05:26:48.762Z,18.00
2017-08-15T05:29:16.469Z,18.10
2017-08-15T05:31:44.177Z,18.20
2017-08-15T05:34:11.887Z,18.20
2017-08-15T05:36:39.598Z,18.30
2017-08-15T05:39:07.314Z,18.40
2017-08-15T05:41:35.036Z,18.40
2017-08-15T05:44:02.758Z,18.50
2017-08-15T05:46:30.474Z,18.60
2017-08-15T05:48:58.207Z,18.70
2017-08-15T05:51:26.695Z,18.90
2017-08-15T05:53:55.169Z,19.00
2017-08-15T05:56:23.653Z,19.10
2017-08-15T05:58:52.129Z,19.20
2017-08-15T06:01:20.668Z,19.30
2017-08-15T06:03:48.372Z,19.30
2017-08-15T06:06:16.864Z,19.60
2017-08-15T06:08:45.350Z,19.80
2017-08-15T06:11:13.828Z,19.90
2017-08-15T06:13:41.550Z,19.90
2017-08-15T06:16:09.266Z,20.00
2017-08-15T06:18:36.982Z,20.20
2017-08-15T06:21:05.485Z,20.60
2017-08-15T06:23:33.197Z,20.50
2017-08-15T06:26:00.910Z,20.80
2017-08-15T06:28:28.646Z,21.00
2017-08-15T06:30:56.363Z,21.30
2017-08-15T06:33:24.067Z,21.90
2017-08-15T06:35:51.769Z,23.40
2017-08-15T06:38:19.477Z,25.30
2017-08-15T06:40:47.182Z,27.00
2017-08-15T06:43:14.900Z,28.60
2017-08-15T06:45:42.609Z,30.10
2017-08-15T06:48:10.313Z,31.40
2017-08-15T06:50:38.013Z,32.60
2017-08-15T06:53:05.724Z,33.50
2017-08-15T06:55:34.209Z,35.20
2017-08-15T06:58:02.687Z,35.90
2017-08-15T07:00:31.165Z,36.50
2017-08-15T07:02:59.653Z,37.00
2017-08-15T07:05:28.137Z,37.60
2017-08-15T07:07:55.904Z,37.60
2017-08-15T07:10:23.623Z,38.00
2017-08-15T07:12:51.352Z,38.30
2017-08-15T07:15:19.059Z,38.80
2017-08-15T07:17:46.810Z,39.00
2017-08-15T07:20:14.528Z,39.20
2017-08-15T07:22:42.330Z,39.10
2017-08-15T07:25:10.051Z,38.80
2017-08-15T07:27:37.763Z,38.50
2017-08-15T07:30:05.495Z,37.30
2017-08-15T07:32:33.212Z,36.50
2017-08-15T07:35:00.934Z,35.90
2017-08-15T07:37:28.649Z,35.30
2017-08-15T07:39:56.378Z,34.60
2017-08-15T07:42:24.123Z,34.00
2017-08-15T07:44:51.826Z,33.40
2017-08-15T07:47:19.534Z,32.50
2017-08-15T07:49:47.238Z,31.60
2017-08-15T07:52:15.005Z,31.10
2017-08-15T07:54:42.729Z,30.70
2017-08-15T07:57:10.456Z,30.30
2017-08-15T07:59:38.169Z,30.00
2017-08-15T08:02:05.886Z,30.00
2017-08-15T08:04:33.598Z,30.00
2017-08-15T08:07:01.309Z,29.90
2017-08-15T08:09:29.022Z,29.90
2017-08-15T08:11:56.813Z,29.90
2017-08-15T08:14:24.526Z,30.00
2017-08-15T08:16:53.001Z,30.20
2017-08-15T08:19:21.483Z,30.20
2017-08-15T08:21:49.963Z,30.10
2017-08-15T08:24:18.452Z,30.10
2017-08-15T08:26:46.939Z,29.90
2017-08-15T08:29:15.423Z,29.90
2017-08-15T08:31:43.149Z,29.80
2017-08-15T08:34:10.869Z,29.70
2017-08-15T08:36:38.585Z,29.50
2017-08-15T08:39:06.309Z,29.10
2017-08-15T08:41:34.040Z,29.00
2017-08-15T08:44:02.531Z,29.60
2017-08-15T08:46:30.257Z,29.60
2017-08-15T08:48:57.972Z,29.90
2017-08-15T08:51:25.698Z,30.00
2017-08-15T08:53:53.414Z,30.10
2017-08-15T08:56:21.134Z,30.40
2017-08-15T08:58:49.683Z,31.10
2017-08-15T09:01:17.436Z,31.00
2017-08-15T09:03:45.154Z,31.20
2017-08-15T09:06:13.689Z,30.80
2017-08-15T09:08:41.461Z,30.80
2017-08-15T09:11:09.184Z,30.60
2017-08-15T09:13:36.926Z,30.40
2017-08-15T09:16:05.458Z,30.40
2017-08-15T09:18:33.178Z,30.30
2017-08-15T09:21:01.724Z,30.60
2017-08-15T09:23:29.439Z,30.60
2017-08-15T09:25:57.197Z,30.70
2017-08-15T09:28:25.220Z,30.90
2017-08-15T09:30:52.930Z,31.20
2017-08-15T09:33:20.684Z,31.50
2017-08-15T09:35:48.442Z,31.70
2017-08-15T09:38:16.934Z,32.40
2017-08-15T09:41:02.702Z,32.60
2017-08-15T09:43:30.452Z,32.50
2017-08-15T09:45:58.234Z,32.60
2017-08-15T09:48:25.958Z,32.60
2017-08-15T09:50:53.694Z,32.90
2017-08-15T09:53:21.418Z,33.30
2017-08-15T09:55:49.150Z,33.60
2017-08-15T09:58:22.566Z,33.50
2017-08-15T10:00:50.295Z,33.10
2017-08-15T10:03:18.010Z,33.20
2017-08-15T10:05:45.747Z,33.10
2017-08-15T10:08:13.494Z,33.30
2017-08-15T10:10:41.284Z,33.30
2017-08-15T10:13:09.056Z,33.50
2017-08-15T10:15:36.794Z,33.60
2017-08-15T10:18:04.514Z,33.60
2017-08-15T10:20:33.073Z,33.50
2017-08-15T10:23:00.861Z,33.40
2017-08-15T10:25:29.351Z,33.40
2017-08-15T10:27:57.084Z,33.40
2017-08-15T10:30:24.812Z,33.50
2017-08-15T10:32:52.542Z,33.50
2017-08-15T10:35:20.260Z,33.10
2017-08-15T10:37:48.010Z,33.10
2017-08-15T10:40:15.741Z,33.50
2017-08-15T10:42:43.475Z,33.60
2017-08-15T10:45:11.198Z,33.70
2017-08-15T10:47:38.918Z,33.60
2017-08-15T10:50:07.406Z,33.00
2017-08-15T10:52:35.893Z,33.40
2017-08-15T10:55:03.655Z,33.30
2017-08-15T10:57:31.407Z,33.80
2017-08-15T10:59:59.923Z,34.40
2017-08-15T11:02:27.658Z,34.40
2017-08-15T11:04:55.383Z,34.80
2017-08-15T11:07:23.098Z,35.10
2017-08-15T11:09:50.857Z,35.40
2017-08-15T11:12:18.571Z,35.60
2017-08-15T11:14:46.286Z,35.70
2017-08-15T11:17:14.826Z,35.10
2017-08-15T11:19:42.542Z,35.10
2017-08-15T11:22:10.257Z,34.60
2017-08-15T11:24:37.995Z,34.30
2017-08-15T11:27:05.730Z,33.90
2017-08-15T11:29:33.438Z,33.70
2017-08-15T11:32:01.155Z,33.50
2017-08-15T11:34:28.877Z,33.40
2017-08-15T11:36:56.603Z,33.40
2017-08-15T11:39:24.331Z,33.70
2017-08-15T11:41:52.833Z,34.00
2017-08-15T11:44:20.562Z,34.10
2017-08-15T11:46:48.287Z,34.40
2017-08-15T11:49:16.003Z,34.60
2017-08-15T11:51:44.507Z,34.90
2017-08-15T11:54:12.236Z,34.90
2017-08-15T11:56:39.958Z,34.90
2017-08-15T11:59:07.709Z,34.80
2017-08-15T12:01:35.443Z,34.70
2017-08-15T12:04:03.995Z,34.60
2017-08-15T12:06:31.730Z,34.50
2017-08-15T12:08:59.450Z,34.40
2017-08-15T12:11:27.947Z,34.00
2017-08-15T12:13:56.440Z,33.70
2017-08-15T12:16:24.154Z,33.70
2017-08-15T12:18:51.885Z,33.20
2017-08-15T12:21:19.626Z,32.50
2017-08-15T12:23:47.357Z,32.10
2017-08-15T12:26:15.083Z,31.50
2017-08-15T12:28:42.813Z,29.00
2017-08-15T12:31:11.319Z,25.50
2017-08-15T12:33:39.070Z,25.40
2017-08-15T12:36:06.827Z,24.30
2017-08-15T12:38:34.559Z,23.40
2017-08-15T12:41:02.283Z,22.70
2017-08-15T12:43:30.014Z,22.30
2017-08-15T12:45:58.494Z,21.80
2017-08-15T12:48:26.980Z,21.80
2017-08-15T12:50:55.462Z,21.80
2017-08-15T12:53:23.939Z,21.80
2017-08-15T12:55:52.416Z,21.80
2017-08-15T12:58:20.131Z,21.80
2017-08-15T13:00:47.869Z,21.90
2017-08-15T13:03:15.590Z,21.90
2017-08-15T13:05:43.318Z,21.80
2017-08-15T13:08:11.036Z,21.20
2017-08-15T13:10:39.522Z,20.00
2017-08-15T13:13:08.003Z,19.60
2017-08-15T13:15:36.497Z,19.50
2017-08-15T13:18:04.258Z,19.50
2017-08-15T13:20:32.747Z,19.50
2017-08-15T13:23:00.508Z,19.40
2017-08-15T13:25:28.258Z,19.50
2017-08-15T13:27:56.774Z,19.50
2017-08-15T13:30:24.531Z,19.40
2017-08-15T13:32:52.299Z,19.50
2017-08-15T13:35:20.066Z,19.40
2017-08-15T13:37:47.823Z,19.60
2017-08-15T13:40:15.585Z,19.80
2017-08-15T13:42:43.308Z,19.90
2017-08-15T13:45:11.059Z,20.10
2017-08-15T13:47:38.819Z,20.30
2017-08-15T13:50:06.594Z,20.50
2017-08-15T13:52:34.310Z,20.80
2017-08-15T13:55:02.037Z,21.00
2017-08-15T13:57:29.808Z,21.30
2017-08-15T13:59:58.331Z,21.90
2017-08-15T14:02:26.093Z,21.90
2017-08-15T14:04:53.852Z,22.20
2017-08-15T14:07:21.617Z,22.30
2017-08-15T14:09:49.375Z,22.30
2017-08-15T14:12:17.148Z,22.30
2017-08-15T14:14:44.927Z,22.30
2017-08-15T14:17:12.682Z,22.30
2017-08-15T14:19:40.446Z,22.30
2017-08-15T14:22:08.212Z,22.30
2017-08-15T14:24:35.950Z,22.20
2017-08-15T14:27:04.482Z,21.90
2017-08-15T14:29:32.247Z,21.90
2017-08-15T14:32:00.011Z,21.80
2017-08-15T14:34:27.775Z,21.80
2017-08-15T14:36:55.543Z,21.80
2017-08-15T14:39:23.272Z,21.60
2017-08-15T14:41:51.039Z,21.50
2017-08-15T14:44:18.810Z,21.40
2017-08-15T14:46:46.582Z,21.40
2017-08-15T14:49:14.358Z,21.40
2017-08-15T14:51:42.120Z,21.40
2017-08-15T14:54:09.909Z,21.50
2017-08-15T14:56:37.858Z,21.40
2017-08-15T14:59:05.635Z,21.50
2017-08-15T15:01:33.448Z,21.60
2017-08-15T15:04:02.007Z,21.70
2017-08-15T15:06:29.767Z,21.70
2017-08-15T15:08:57.530Z,21.90
2017-08-15T15:11:25.292Z,22.00
2017-08-15T15:13:53.064Z,22.10
2017-08-15T15:16:20.819Z,22.20
2017-08-15T15:18:48.587Z,22.30
2017-08-15T15:21:16.374Z,22.40
2017-08-15T15:23:44.138Z,22.50
2017-08-15T15:26:12.666Z,22.60
2017-08-15T15:28:40.426Z,22.60
2017-08-15T15:31:08.185Z,22.70
2017-08-15T15:33:35.946Z,22.80
2017-08-15T15:36:03.695Z,22.80
2017-08-15T15:38:32.405Z,22.90
2017-08-15T15:41:00.311Z,23.00
2017-08-15T15:43:28.176Z,23.00
2017-08-15T15:45:56.044Z,23.10
2017-08-15T15:48:23.914Z,23.10
2017-08-15T15:50:51.778Z,23.10
2017-08-15T15:53:19.646Z,23.10
2017-08-15T15:55:47.513Z,23.20
2017-08-15T15:58:15.387Z,23.20
2017-08-15T16:00:43.248Z,23.20
2017-08-15T16:03:11.115Z,23.20
2017-08-15T16:05:38.984Z,23.20
2017-08-15T16:08:06.854Z,23.30
2017-08-15T16:10:34.721Z,23.30
2017-08-15T16:13:02.586Z,23.40
2017-08-15T16:15:30.451Z,23.40
2017-08-15T16:17:58.319Z,23.20
2017-08-15T16:20:26.119Z,23.00
2017-08-15T16:22:54.769Z,22.80
2017-08-15T16:25:22.637Z,22.70
2017-08-15T16:27:50.504Z,22.90
2017-08-15T16:30:18.371Z,22.90
2017-08-15T16:32:46.239Z,23.00
2017-08-15T16:35:14.106Z,23.10
2017-08-15T16:37:41.972Z,23.20
2017-08-15T16:40:09.841Z,23.30
2017-08-15T16:42:37.605Z,23.40
2017-08-15T16:45:05.370Z,23.60
2017-08-15T16:47:33.136Z,23.50
2017-08-15T16:50:01.003Z,23.60
2017-08-15T16:52:28.870Z,23.70
2017-08-15T16:54:56.736Z,23.70
2017-08-15T16:57:24.605Z,23.80
2017-08-15T16:59:52.471Z,23.80
2017-08-15T17:02:20.339Z,23.70
2017-08-15T17:04:48.205Z,23.70
2017-08-15T17:07:16.073Z,23.70
2017-08-15T17:09:43.941Z,23.60
2017-08-15T17:12:11.809Z,23.50
2017-08-15T17:14:39.675Z,23.50
2017-08-15T17:17:07.543Z,23.50
2017-08-15T17:19:35.410Z,23.40
2017-08-15T17:22:03.275Z,23.30
2017-08-15T17:24:31.144Z,23.30
2017-08-15T17:26:59.010Z,23.30
2017-08-15T17:29:26.878Z,23.20
2017-08-15T17:31:54.745Z,23.00
2017-08-15T17:34:22.616Z,23.00
2017-08-15T17:36:50.480Z,23.00
2017-08-15T17:39:18.348Z,23.00
2017-08-15T17:41:46.215Z,23.00
2017-08-15T17:44:14.082Z,23.00
2017-08-15T17:46:41.949Z,23.00
2017-08-15T17:49:09.817Z,22.90
2017-08-15T17:51:37.683Z,23.00
2017-08-15T17:54:05.552Z,22.90
2017-08-15T17:56:33.418Z,22.90
2017-08-15T17:59:01.285Z,22.80
2017-08-15T18:01:29.153Z,22.70
2017-08-15T18:03:57.021Z,22.60
2017-08-15T18:06:24.887Z,22.60
2017-08-15T18:08:52.755Z,22.50
2017-08-15T18:11:20.622Z,22.50
2017-08-15T18:13:48.489Z,22.50
2017-08-15T18:16:16.357Z,22.40
2017-08-15T18:18:44.224Z,22.50
2017-08-15T18:21:12.092Z,22.60
2017-08-15T18:23:39.959Z,22.50
2017-08-15T18:26:07.825Z,22.50
2017-08-15T18:28:35.694Z,22.50
2017-08-15T18:31:03.560Z,22.50
2017-08-15T18:33:31.361Z,22.60
2017-08-15T18:36:00.012Z,22.70
2017-08-15T18:38:27.879Z,22.70
2017-08-15T18:40:55.751Z,22.70
2017-08-15T18:43:23.613Z,22.80
2017-08-15T18:45:51.482Z,22.80
2017-08-15T18:48:19.351Z,22.80
2017-08-15T18:50:47.216Z,22.80
2017-08-15T18:53:15.083Z,22.80
2017-08-15T18:55:42.951Z,22.90
2017-08-15T18:58:10.818Z,22.90
2017-08-15T19:00:38.685Z,22.80
2017-08-15T19:03:06.552Z,22.80
2017-08-15T19:05:34.419Z,22.80
2017-08-15T19:08:02.286Z,22.60
2017-08-15T19:10:30.153Z,22.50
2017-08-15T19:12:58.021Z,22.50
2017-08-15T19:15:25.888Z,22.50
2017-08-15T19:17:53.756Z,22.50
2017-08-15T19:20:21.623Z,22.30
2017-08-15T19:22:49.491Z,22.20
2017-08-15T19:25:17.365Z,22.10
2017-08-15T19:27:45.231Z,22.00
2017-08-15T19:30:13.096Z,22.00
2017-08-15T19:32:40.961Z,22.10
2017-08-15T19:35:08.832Z,22.20
2017-08-15T19:37:36.697Z,22.10
2017-08-15T19:40:04.565Z,22.10
2017-08-15T19:42:32.430Z,22.10
2017-08-15T19:45:00.296Z,22.20
2017-08-15T19:47:28.163Z,22.20
2017-08-15T19:49:56.035Z,22.20
2017-08-15T19:52:23.897Z,22.30
2017-08-15T19:54:51.765Z,22.30
2017-08-15T19:57:19.632Z,22.20
2017-08-15T19:59:47.499Z,22.20
2017-08-15T20:02:15.221Z,22.20
2017-08-15T20:04:43.029Z,22.20
2017-08-15T20:07:10.827Z,22.10
2017-08-15T20:09:39.480Z,21.90
2017-08-15T20:12:07.218Z,21.90
2017-08-15T20:14:35.113Z,21.90
2017-08-15T20:17:02.839Z,21.80
2017-08-15T20:19:30.558Z,21.80
2017-08-15T20:21:58.330Z,21.80
2017-08-15T20:24:26.172Z,21.70
2017-08-15T20:26:54.039Z,21.70
2017-08-15T20:29:21.907Z,21.70
2017-08-15T20:31:49.773Z,21.70
2017-08-15T20:34:17.505Z,21.60
2017-08-15T20:36:45.246Z,21.60
2017-08-15T20:39:12.978Z,21.60
2017-08-15T20:41:40.833Z,21.60
2017-08-15T20:44:08.701Z,21.50
2017-08-15T20:46:36.670Z,21.50
2017-08-15T20:49:04.544Z,21.40
2017-08-15T20:51:32.406Z,21.30
2017-08-15T20:54:00.272Z,21.20
2017-08-15T20:56:27.987Z,21.10
2017-08-15T20:58:55.747Z,21.10
2017-08-15T21:01:23.568Z,21.00
2017-08-15T21:03:51.434Z,21.00
2017-08-15T21:06:19.301Z,20.90
2017-08-15T21:08:47.168Z,20.90
2017-08-15T21:11:15.036Z,21.00
2017-08-15T21:13:42.902Z,21.10
2017-08-15T21:16:11.098Z,21.10
2017-08-15T21:18:38.946Z,21.20
2017-08-15T21:21:06.812Z,21.20
2017-08-15T21:23:34.606Z,21.20
2017-08-15T21:26:03.160Z,21.10
2017-08-15T21:28:31.027Z,21.10
2017-08-15T21:30:58.997Z,21.10
2017-08-15T21:33:26.865Z,21.00
2017-08-15T21:35:54.733Z,21.00
2017-08-15T21:38:22.598Z,20.90
2017-08-15T21:40:50.364Z,20.90
2017-08-15T21:43:18.230Z,20.90
2017-08-15T21:45:46.098Z,20.90
2017-08-15T21:48:13.965Z,20.80
2017-08-15T21:50:41.730Z,20.80
2017-08-15T21:53:09.597Z,20.80
2017-08-15T21:55:37.465Z,20.90
2017-08-15T21:58:05.273Z,20.90
2017-08-15T22:00:33.920Z,21.00
2017-08-15T22:03:01.635Z,21.00
2017-08-15T22:05:29.456Z,21.00
2017-08-15T22:07:57.313Z,21.00
2017-08-15T22:10:25.180Z,21.10
2017-08-15T22:12:53.047Z,21.10
2017-08-15T22:15:20.914Z,21.10
2017-08-15T22:17:48.782Z,21.10
2017-08-15T22:20:16.518Z,21.20
2017-08-15T22:22:44.229Z,21.20
2017-08-15T22:25:11.973Z,21.20
2017-08-15T22:27:39.844Z,21.10
2017-08-15T22:30:07.708Z,21.00
2017-08-15T22:32:35.575Z,21.00
2017-08-15T22:35:03.443Z,21.10
2017-08-15T22:37:31.311Z,21.00
2017-08-15T22:39:59.177Z,21.00
2017-08-15T22:42:26.894Z,20.90
2017-08-15T22:44:54.642Z,21.00
2017-08-15T22:47:23.291Z,21.00
2017-08-15T22:49:51.023Z,21.00
2017-08-15T22:52:18.750Z,20.90
2017-08-15T22:54:47.410Z,21.00
2017-08-15T22:57:15.274Z,21.00
2017-08-15T22:59:43.079Z,21.00
2017-08-15T23:02:11.728Z,21.00
2017-08-15T23:04:39.459Z,20.90
2017-08-15T23:07:07.258Z,21.00
2017-08-15T23:09:35.123Z,20.90
2017-08-15T23:12:02.990Z,20.90
2017-08-15T23:14:30.857Z,20.90
2017-08-15T23:16:58.722Z,21.00
2017-08-15T23:19:26.590Z,21.00
2017-08-15T23:21:54.457Z,21.10
2017-08-15T23:24:22.323Z,21.00
2017-08-15T23:26:50.191Z,21.10
2017-08-15T23:29:18.059Z,21.00
2017-08-15T23:31:45.927Z,21.10
2017-08-15T23:34:13.793Z,21.10
2017-08-15T23:36:41.660Z,21.00
2017-08-15T23:39:09.527Z,21.00
2017-08-15T23:41:37.395Z,21.00
2017-08-15T23:44:05.261Z,20.90
2017-08-15T23:46:33.129Z,20.90
2017-08-15T23:49:00.996Z,20.80
2017-08-15T23:51:28.858Z,20.80
2017-08-15T23:53:56.731Z,20.60
2017-08-15T23:56:24.602Z,20.70
2017-08-15T23:58:52.431Z,20.70
